Time;durP1;ratioP1;P1;durP2;ratioP2;P2;SDS_P1;SDS_P2;PMS_P1;PMS_P2;Temp;Humidity;BMP_temperature;BMP_pressure;BME280_temperature;BME280_humidity;BME280_pressure;Samples;Min_cycle;Max_cycle;Signal;HPM_P1;HPM_P2
2023/08/04 00:00:23;;;;;;;11.48;2.97;;;;;;;14.50;75.17;101249.66;5035595;28;20045;-45
2023/08/04 00:02:50;;;;;;;6.03;2.30;;;;;;;14.53;75.11;101249.72;5032797;28;20402;-45
2023/08/04 00:05:17;;;;;;;13.60;2.30;;;;;;;14.53;74.97;101246.16;5033201;28;20042;-45
2023/08/04 00:07:43;;;;;;;6.60;1.90;;;;;;;14.53;74.80;101249.72;5032662;28;20450;-44
2023/08/04 00:10:11;;;;;;;5.15;2.30;;;;;;;14.58;74.71;101248.66;5028254;28;20049;-44
2023/08/04 00:12:37;;;;;;;11.35;2.40;;;;;;;14.60;74.80;101240.75;5032064;28;20079;-45
2023/08/04 00:15:06;;;;;;;12.32;4.00;;;;;;;14.60;74.87;101235.97;5030264;28;20049;-46
2023/08/04 00:17:38;;;;;;;8.75;2.10;;;;;;;14.55;74.59;101230.69;5031439;28;20050;-45
2023/08/04 00:20:10;;;;;;;6.15;2.22;;;;;;;14.49;74.46;101237.69;5032890;28;20033;-45
2023/08/04 00:22:38;;;;;;;5.18;1.85;;;;;;;14.45;74.39;101244.34;5032600;28;20115;-45
2023/08/04 00:25:06;;;;;;;6.15;2.50;;;;;;;14.41;74.38;101238.66;5032680;28;20053;-45
2023/08/04 00:27:34;;;;;;;8.02;3.40;;;;;;;14.34;74.41;101240.47;5029891;28;20453;-44
2023/08/04 00:30:01;;;;;;;8.90;2.28;;;;;;;14.28;74.27;101241.88;5032470;28;20070;-44
2023/08/04 00:32:28;;;;;;;5.85;1.90;;;;;;;14.18;74.36;101236.81;5025653;28;20056;-48
2023/08/04 00:34:55;;;;;;;8.30;2.60;;;;;;;14.14;74.50;101241.50;5028622;28;20073;-46
2023/08/04 00:37:23;;;;;;;10.13;4.22;;;;;;;14.04;74.41;101246.41;5031933;28;20056;-45
2023/08/04 00:39:50;;;;;;;6.00;2.25;;;;;;;13.95;74.70;101240.19;5031210;28;20053;-45
2023/08/04 00:42:18;;;;;;;15.20;3.60;;;;;;;13.97;74.70;101237.88;5032374;28;20123;-45
2023/08/04 00:44:44;;;;;;;8.73;3.67;;;;;;;13.92;74.48;101240.94;5032527;28;20132;-46
2023/08/04 00:47:12;;;;;;;9.30;2.03;;;;;;;13.80;74.72;101232.63;5022609;28;20049;-44
2023/08/04 00:49:40;;;;;;;7.82;2.25;;;;;;;13.69;74.64;101234.28;5031901;28;20049;-46
2023/08/04 00:52:08;;;;;;;7.78;3.50;;;;;;;13.59;74.76;101229.22;5032091;28;20049;-46
2023/08/04 00:54:36;;;;;;;9.35;2.47;;;;;;;13.55;74.84;101235.88;5032307;28;20050;-46
2023/08/04 00:57:04;;;;;;;11.88;2.45;;;;;;;13.53;74.89;101238.97;5031736;28;20099;-44
2023/08/04 00:59:31;;;;;;;6.13;2.53;;;;;;;13.47;74.71;101245.16;5031614;28;20049;-45
2023/08/04 01:01:58;;;;;;;13.23;4.15;;;;;;;13.46;74.90;101241.56;5029267;28;20650;-44
2023/08/04 01:04:26;;;;;;;9.88;2.40;;;;;;;13.41;75.08;101247.38;5023673;28;20144;-44
2023/08/04 01:06:56;;;;;;;8.02;2.17;;;;;;;13.38;75.16;101242.53;5022139;28;20557;-44
2023/08/04 01:09:58;;;;;;;6.82;2.60;;;;;;;13.36;75.25;101254.00;5032346;28;20042;-46
2023/08/04 01:12:36;;;;;;;7.60;2.67;;;;;;;13.35;75.38;101246.00;5006857;28;20114;-45
2023/08/04 01:15:06;;;;;;;9.63;2.72;;;;;;;13.35;75.34;101249.59;5032214;28;20049;-45
2023/08/04 01:17:33;;;;;;;9.48;2.90;;;;;;;13.34;75.37;101252.75;5022457;28;20099;-45
2023/08/04 01:20:00;;;;;;;8.45;3.13;;;;;;;13.28;75.60;101254.13;5030157;28;20076;-45
2023/08/04 01:22:27;;;;;;;7.90;3.20;;;;;;;13.26;75.92;101256.47;5031808;28;20092;-45
2023/08/04 01:24:55;;;;;;;9.27;3.03;;;;;;;13.26;76.11;101251.69;5031408;28;20083;-45
2023/08/04 01:27:59;;;;;;;13.27;4.10;;;;;;;13.28;75.97;101251.34;5031695;28;20084;-45
2023/08/04 01:30:30;;;;;;;13.90;3.47;;;;;;;13.27;75.83;101252.50;4981868;28;20049;-46
2023/08/04 01:32:57;;;;;;;12.40;4.00;;;;;;;13.24;75.90;101258.75;5029283;28;20045;-45
2023/08/04 01:35:24;;;;;;;14.38;4.35;;;;;;;13.16;76.00;101270.81;5029955;28;20045;-45
2023/08/04 01:37:51;;;;;;;9.48;3.35;;;;;;;13.13;76.17;101268.75;5029556;28;20052;-46
2023/08/04 01:40:18;;;;;;;12.23;3.35;;;;;;;13.12;76.33;101262.41;5022680;28;20042;-45
2023/08/04 01:42:45;;;;;;;13.60;4.47;;;;;;;13.11;76.24;101259.94;5030428;28;20072;-45
2023/08/04 01:45:12;;;;;;;10.18;5.53;;;;;;;13.09;76.38;101262.28;5030749;28;20049;-45
2023/08/04 01:47:39;;;;;;;11.77;5.22;;;;;;;13.01;76.32;101263.19;5026883;28;20400;-49
2023/08/04 01:50:08;;;;;;;15.32;4.57;;;;;;;12.99;76.61;101269.09;5016287;28;20447;-45
2023/08/04 01:52:36;;;;;;;10.70;4.70;;;;;;;13.00;76.47;101264.34;5027593;28;20053;-45
2023/08/04 01:55:03;;;;;;;8.32;3.70;;;;;;;12.91;76.45;101266.44;5028105;28;20053;-47
2023/08/04 01:57:30;;;;;;;9.93;3.40;;;;;;;12.79;76.76;101270.00;5021474;28;20099;-45
2023/08/04 01:59:56;;;;;;;12.90;3.83;;;;;;;12.72;77.17;101276.16;5029057;28;20038;-46
2023/08/04 02:02:23;;;;;;;12.88;3.67;;;;;;;12.68;77.11;101271.66;5029620;28;20053;-45
2023/08/04 02:04:50;;;;;;;11.52;3.30;;;;;;;12.65;77.32;101275.94;5027625;28;20136;-47
2023/08/04 02:07:17;;;;;;;8.63;3.70;;;;;;;12.64;77.56;101267.94;5025284;28;20135;-44
2023/08/04 02:09:45;;;;;;;12.32;5.03;;;;;;;12.64;77.71;101267.94;5029992;28;20057;-49
2023/08/04 02:12:12;;;;;;;11.63;3.67;;;;;;;12.58;77.73;101269.31;5029296;28;20103;-47
2023/08/04 02:14:39;;;;;;;13.75;4.80;;;;;;;12.55;77.77;101275.56;5029410;28;20049;-46
2023/08/04 02:17:05;;;;;;;12.95;4.00;;;;;;;12.45;77.98;101274.03;5028326;28;20136;-50
2023/08/04 02:19:32;;;;;;;12.00;3.97;;;;;;;12.41;78.30;101272.31;5028317;28;20053;-46
2023/08/04 02:21:59;;;;;;;14.73;4.05;;;;;;;12.38;78.32;101287.69;5029280;28;20496;-47
2023/08/04 02:24:26;;;;;;;12.82;3.78;;;;;;;12.39;78.57;101285.72;5029740;28;20053;-47
2023/08/04 02:26:53;;;;;;;9.85;4.10;;;;;;;12.36;78.40;101284.47;5030800;28;20454;-46
2023/08/04 02:29:19;;;;;;;15.57;4.88;;;;;;;12.34;78.72;101289.53;5022782;28;20407;-46
2023/08/04 02:31:47;;;;;;;8.13;3.50;;;;;;;12.33;78.65;101295.44;5029466;28;20068;-45
2023/08/04 02:34:14;;;;;;;11.07;4.28;;;;;;;12.31;78.76;101301.31;5030976;28;20058;-47
2023/08/04 02:36:42;;;;;;;9.73;3.65;;;;;;;12.27;78.83;101303.16;5030773;28;20053;-45
2023/08/04 02:39:09;;;;;;;13.05;4.28;;;;;;;12.21;78.83;101294.25;5030555;28;20133;-46
2023/08/04 02:41:37;;;;;;;11.23;4.47;;;;;;;12.20;78.93;101302.91;5029818;28;20376;-46
2023/08/04 02:44:06;;;;;;;11.65;4.03;;;;;;;12.11;79.28;101304.97;5028453;28;20041;-45
2023/08/04 02:46:33;;;;;;;13.18;3.60;;;;;;;12.07;79.47;101310.38;5028909;28;20466;-46
2023/08/04 02:49:01;;;;;;;12.60;5.10;;;;;;;12.08;79.57;101312.00;5030508;28;20099;-44
2023/08/04 02:51:28;;;;;;;10.38;3.42;;;;;;;12.03;79.67;101303.09;5029811;28;20052;-46
2023/08/04 02:53:55;;;;;;;17.42;5.13;;;;;;;11.97;79.83;101310.81;5029751;28;20051;-45
2023/08/04 02:56:21;;;;;;;10.82;4.65;;;;;;;11.98;79.80;101311.63;5032528;28;20042;-46
2023/08/04 02:58:48;;;;;;;10.07;4.15;;;;;;;11.98;79.83;101318.00;5030398;28;20518;-44
2023/08/04 03:01:16;;;;;;;9.50;4.60;;;;;;;11.96;80.08;101325.03;5017641;28;20137;-45
2023/08/04 03:03:43;;;;;;;14.27;4.18;;;;;;;11.99;79.92;101329.91;5032054;28;20441;-48
2023/08/04 03:06:09;;;;;;;11.88;4.18;;;;;;;12.01;80.00;101327.59;5030663;28;20041;-45
2023/08/04 03:08:36;;;;;;;11.57;4.90;;;;;;;11.99;79.89;101318.81;5032255;28;20060;-45
2023/08/04 03:11:10;;;;;;;15.80;4.80;;;;;;;11.95;80.24;101323.41;5032549;28;20037;-46
2023/08/04 03:13:38;;;;;;;13.18;5.32;;;;;;;11.93;80.30;101329.31;5029403;28;20052;-45
2023/08/04 03:16:05;;;;;;;13.82;4.55;;;;;;;11.91;80.35;101322.47;5031821;28;20114;-46
2023/08/04 03:18:32;;;;;;;11.65;4.60;;;;;;;11.88;80.33;101317.59;5033240;28;20799;-46
2023/08/04 03:21:05;;;;;;;14.70;4.90;;;;;;;11.89;80.74;101330.28;5032579;28;20439;-47
2023/08/04 03:23:33;;;;;;;9.52;4.65;;;;;;;11.83;80.83;101320.59;5020856;28;20447;-45
2023/08/04 03:25:59;;;;;;;8.73;4.40;;;;;;;11.84;80.91;101322.19;5031058;28;20050;-45
2023/08/04 03:28:27;;;;;;;13.48;4.97;;;;;;;11.77;81.07;101317.19;5030840;28;20053;-46
2023/08/04 03:30:54;;;;;;;15.57;5.95;;;;;;;11.73;81.18;101321.78;5030640;28;20045;-47
2023/08/04 03:33:21;;;;;;;14.95;5.72;;;;;;;11.70;81.37;101321.66;5030792;28;20525;-45
2023/08/04 03:35:47;;;;;;;13.40;6.43;;;;;;;11.69;81.41;101336.69;5030125;28;20080;-47
2023/08/04 03:38:14;;;;;;;13.77;5.75;;;;;;;11.67;81.68;101325.09;5033059;28;20566;-45
2023/08/04 03:40:41;;;;;;;15.27;6.80;;;;;;;11.65;81.79;101319.06;5032247;28;20092;-46
2023/08/04 03:43:08;;;;;;;18.63;5.65;;;;;;;11.65;81.80;101327.41;5027479;28;20061;-46
2023/08/04 03:45:35;;;;;;;13.70;5.60;;;;;;;11.61;81.88;101327.25;5028359;28;20271;-45
2023/08/04 03:48:02;;;;;;;14.93;4.93;;;;;;;11.57;82.10;101327.09;5031767;28;20046;-45
2023/08/04 03:50:30;;;;;;;18.15;5.22;;;;;;;11.53;82.15;101322.56;5030459;28;20049;-52
2023/08/04 03:52:57;;;;;;;13.13;5.93;;;;;;;11.52;82.22;101321.75;5033301;28;20057;-45
2023/08/04 03:55:24;;;;;;;14.43;5.35;;;;;;;11.52;82.32;101324.53;5033010;28;20141;-45
2023/08/04 03:57:51;;;;;;;14.38;5.20;;;;;;;11.57;82.44;101323.50;5031408;28;20087;-47
2023/08/04 04:00:18;;;;;;;13.38;5.35;;;;;;;11.56;82.55;101310.81;5032470;28;20492;-47
2023/08/04 04:02:45;;;;;;;12.15;4.80;;;;;;;11.52;82.56;101315.41;5031840;28;20034;-46
2023/08/04 04:05:12;;;;;;;15.43;6.03;;;;;;;11.52;82.51;101318.16;5032615;28;20060;-46
2023/08/04 04:07:39;;;;;;;12.25;5.35;;;;;;;11.52;82.52;101321.75;5030740;28;20041;-46
2023/08/04 04:10:07;;;;;;;11.93;5.70;;;;;;;11.51;82.51;101314.59;5033166;28;20687;-47
2023/08/04 04:12:35;;;;;;;14.63;5.85;;;;;;;11.46;82.84;101320.31;5029991;28;20042;-45
2023/08/04 04:15:04;;;;;;;14.63;5.57;;;;;;;11.44;82.74;101314.31;5032754;28;20052;-46
2023/08/04 04:17:31;;;;;;;11.02;5.20;;;;;;;11.44;83.13;101324.59;5025138;28;20133;-46
2023/08/04 04:19:58;;;;;;;10.48;5.82;;;;;;;11.51;83.38;101328.47;5032723;28;20436;-46
2023/08/04 04:22:25;;;;;;;10.38;5.40;;;;;;;11.58;83.45;101323.19;5032330;28;20075;-45
2023/08/04 04:24:52;;;;;;;12.75;5.75;;;;;;;11.65;83.47;101335.72;5025503;28;20053;-46
2023/08/04 04:27:19;;;;;;;13.05;5.00;;;;;;;11.69;83.29;101331.13;5026128;28;20048;-46
2023/08/04 04:29:46;;;;;;;20.08;5.47;;;;;;;11.67;83.48;101333.41;5020501;28;20076;-46
2023/08/04 04:32:13;;;;;;;13.93;6.50;;;;;;;11.63;83.58;101328.53;5029545;28;20064;-51
2023/08/04 04:34:40;;;;;;;9.95;5.38;;;;;;;11.59;83.64;101330.38;5026871;28;20045;-45
2023/08/04 04:37:07;;;;;;;11.07;5.80;;;;;;;11.57;83.81;101337.38;5027426;28;20073;-45
2023/08/04 04:39:34;;;;;;;15.68;6.22;;;;;;;11.60;83.92;101343.06;5029608;28;20491;-45
2023/08/04 04:42:02;;;;;;;14.27;5.78;;;;;;;11.59;83.74;101341.47;5018098;28;20500;-46
2023/08/04 04:44:29;;;;;;;17.65;5.90;;;;;;;11.57;83.78;101349.28;5028193;28;20384;-48
2023/08/04 04:46:56;;;;;;;12.98;6.00;;;;;;;11.56;84.09;101349.63;5028394;28;20399;-46
2023/08/04 04:49:23;;;;;;;17.23;5.68;;;;;;;11.57;84.10;101345.69;5029234;28;20548;-46
2023/08/04 04:51:50;;;;;;;11.43;4.75;;;;;;;11.61;84.33;101341.94;5020487;28;20046;-50
2023/08/04 04:54:16;;;;;;;11.13;4.95;;;;;;;11.67;84.23;101341.72;5026231;28;20049;-48
2023/08/04 04:56:43;;;;;;;12.65;5.85;;;;;;;11.69;84.10;101337.50;5022682;28;20053;-52
2023/08/04 04:59:10;;;;;;;16.73;6.40;;;;;;;11.72;84.19;101347.09;5030420;28;20029;-48
2023/08/04 05:01:37;;;;;;;11.75;6.20;;;;;;;11.70;84.23;101344.69;5024018;28;20045;-48
2023/08/04 05:04:04;;;;;;;14.32;5.90;;;;;;;11.70;84.25;101350.22;5027100;28;20053;-47
2023/08/04 05:06:31;;;;;;;11.00;5.35;;;;;;;11.67;84.42;101356.41;5028541;28;20531;-46
2023/08/04 05:08:58;;;;;;;12.30;5.30;;;;;;;11.66;84.59;101348.41;5027338;28;20060;-47
2023/08/04 05:11:24;;;;;;;10.75;6.07;;;;;;;11.67;84.59;101350.88;5026850;28;20057;-45
2023/08/04 05:13:52;;;;;;;16.30;6.95;;;;;;;11.69;84.63;101353.31;5024040;28;20045;-47
2023/08/04 05:16:18;;;;;;;11.88;5.90;;;;;;;11.67;84.60;101350.06;5026320;28;20049;-45
2023/08/04 05:18:45;;;;;;;10.73;5.55;;;;;;;11.65;84.84;101346.81;5020598;28;20037;-47
2023/08/04 05:21:12;;;;;;;18.48;8.00;;;;;;;11.64;84.79;101351.53;5008666;28;20041;-46
2023/08/04 05:23:39;;;;;;;14.02;6.50;;;;;;;11.61;84.69;101353.03;5018588;28;20045;-45
2023/08/04 05:26:06;;;;;;;22.95;7.68;;;;;;;11.60;84.95;101354.16;5027550;28;20495;-46
2023/08/04 05:28:33;;;;;;;15.15;7.95;;;;;;;11.58;85.25;101359.25;5029848;28;20042;-46
2023/08/04 05:31:04;;;;;;;19.98;7.05;;;;;;;11.53;85.38;101362.22;5031886;28;20551;-45
2023/08/04 05:33:32;;;;;;;16.20;6.45;;;;;;;11.59;85.56;101360.88;5030088;28;20144;-46
2023/08/04 05:36:00;;;;;;;18.63;7.25;;;;;;;11.66;85.55;101365.06;5031556;28;20451;-46
2023/08/04 05:38:28;;;;;;;17.00;7.70;;;;;;;11.72;85.65;101360.97;5029795;28;20049;-46
2023/08/04 05:41:00;;;;;;;17.13;7.55;;;;;;;11.76;85.81;101364.69;5031548;28;20048;-46
2023/08/04 05:43:27;;;;;;;14.68;8.05;;;;;;;11.85;85.85;101370.97;5027419;28;20045;-47
2023/08/04 05:45:54;;;;;;;12.07;7.63;;;;;;;11.95;85.83;101367.78;5031040;28;20044;-46
2023/08/04 05:48:21;;;;;;;16.73;7.95;;;;;;;12.00;85.62;101371.19;5030256;28;20053;-47
2023/08/04 05:50:48;;;;;;;15.40;7.63;;;;;;;12.02;85.86;101373.63;5031591;28;20057;-47
2023/08/04 05:53:15;;;;;;;17.13;8.93;;;;;;;12.06;86.05;101372.59;5029413;28;20038;-46
2023/08/04 05:55:42;;;;;;;14.25;7.75;;;;;;;12.07;85.98;101365.88;5024086;28;20052;-45
2023/08/04 05:58:08;;;;;;;19.30;9.98;;;;;;;12.07;86.04;101367.88;5024514;28;20087;-46
2023/08/04 06:00:35;;;;;;;18.63;8.93;;;;;;;12.08;86.07;101380.56;5025483;28;20476;-46
2023/08/04 06:03:04;;;;;;;16.73;8.60;;;;;;;12.10;86.02;101375.50;5027503;28;20033;-46
2023/08/04 06:05:31;;;;;;;21.08;9.45;;;;;;;12.12;86.35;101379.59;5027016;28;20052;-46
2023/08/04 06:07:58;;;;;;;16.73;8.88;;;;;;;12.18;86.50;101380.16;5020573;28;20057;-46
2023/08/04 06:10:25;;;;;;;16.48;9.30;;;;;;;12.23;86.67;101388.31;5026636;28;20112;-47
2023/08/04 06:12:52;;;;;;;24.05;9.52;;;;;;;12.27;86.81;101386.44;5027672;28;20495;-46
2023/08/04 06:15:19;;;;;;;20.42;10.68;;;;;;;12.31;86.88;101386.59;5018548;28;20041;-50
2023/08/04 06:17:47;;;;;;;23.30;12.15;;;;;;;12.36;86.82;101395.53;5027619;28;20046;-47
2023/08/04 06:20:14;;;;;;;25.40;13.15;;;;;;;12.40;87.04;101382.56;5025513;28;20081;-46
2023/08/04 06:22:41;;;;;;;28.05;11.48;;;;;;;12.45;87.05;101382.34;5024668;28;20045;-46
2023/08/04 06:25:08;;;;;;;22.60;11.60;;;;;;;12.52;87.08;101374.25;5027349;28;20061;-49
2023/08/04 06:27:35;;;;;;;22.90;12.35;;;;;;;12.58;87.18;101381.22;5023350;28;20052;-50
2023/08/04 06:30:02;;;;;;;22.23;12.63;;;;;;;12.62;87.23;101382.19;5030864;28;20037;-45
2023/08/04 06:32:29;;;;;;;27.88;12.52;;;;;;;12.67;87.36;101379.19;5029817;28;20052;-47
2023/08/04 06:34:56;;;;;;;21.83;11.90;;;;;;;12.74;87.28;101386.94;5005024;28;20115;-45
2023/08/04 06:37:23;;;;;;;28.55;13.93;;;;;;;12.80;87.27;101386.38;5028376;28;20103;-50
2023/08/04 06:39:50;;;;;;;27.27;12.85;;;;;;;12.83;87.32;101380.13;5027667;28;20056;-48
2023/08/04 06:42:18;;;;;;;23.77;12.48;;;;;;;12.91;87.24;101383.97;5032613;28;20453;-45
2023/08/04 06:44:45;;;;;;;21.48;12.00;;;;;;;12.95;87.28;101386.84;5034729;28;20495;-46
2023/08/04 06:47:12;;;;;;;24.95;11.75;;;;;;;13.00;87.32;101386.66;5028549;28;20057;-48
2023/08/04 06:49:40;;;;;;;22.15;12.00;;;;;;;13.06;87.39;101388.03;5034975;28;20399;-45
2023/08/04 06:52:08;;;;;;;26.50;13.55;;;;;;;13.10;87.44;101398.16;5034251;28;20045;-46
2023/08/04 06:54:36;;;;;;;23.80;13.05;;;;;;;13.14;87.33;101399.06;5023697;28;20507;-46
2023/08/04 06:57:05;;;;;;;26.00;12.65;;;;;;;13.18;87.33;101394.47;5034249;28;20051;-49
2023/08/04 06:59:32;;;;;;;27.65;13.27;;;;;;;13.23;87.22;101398.97;5034066;28;20099;-46
2023/08/04 07:01:59;;;;;;;26.63;12.07;;;;;;;13.26;87.22;101389.94;5033967;28;20073;-46
2023/08/04 07:04:26;;;;;;;23.55;11.70;;;;;;;13.31;87.34;101398.03;5032775;28;20049;-47
2023/08/04 07:06:56;;;;;;;24.60;12.68;;;;;;;13.34;87.25;101392.56;5033164;28;20045;-45
2023/08/04 07:09:24;;;;;;;24.45;12.60;;;;;;;13.42;87.09;101396.44;5033335;28;20458;-46
2023/08/04 07:11:51;;;;;;;23.60;13.05;;;;;;;13.48;87.08;101397.78;5028640;28;20050;-48
2023/08/04 07:14:18;;;;;;;23.92;10.93;;;;;;;13.54;86.99;101396.41;5020214;28;20041;-46
2023/08/04 07:16:48;;;;;;;25.50;13.35;;;;;;;13.59;86.73;101398.13;5022467;28;20555;-47
2023/08/04 07:19:15;;;;;;;25.23;12.85;;;;;;;13.62;86.89;101395.47;5026935;28;20040;-46
2023/08/04 07:21:43;;;;;;;23.15;12.05;;;;;;;13.71;86.72;101398.13;5031369;28;20044;-46
2023/08/04 07:24:11;;;;;;;25.23;12.73;;;;;;;13.78;86.75;101393.59;5027993;28;20048;-47
2023/08/04 07:26:38;;;;;;;24.58;14.32;;;;;;;13.88;86.57;101404.22;5033564;28;20053;-47
2023/08/04 07:29:05;;;;;;;22.58;12.10;;;;;;;13.96;86.69;101394.13;5032110;28;20403;-48
2023/08/04 07:31:32;;;;;;;21.17;12.18;;;;;;;14.04;86.63;101398.72;5032709;28;20068;-51
2023/08/04 07:33:59;;;;;;;25.30;12.60;;;;;;;14.11;86.63;101395.38;5030594;28;20128;-45
2023/08/04 07:36:26;;;;;;;25.17;13.18;;;;;;;14.19;86.47;101391.63;5034028;28;20476;-45
2023/08/04 07:38:53;;;;;;;26.55;13.38;;;;;;;14.28;86.64;101403.41;5027918;28;20096;-48
2023/08/04 07:41:22;;;;;;;24.05;13.45;;;;;;;14.38;86.71;101400.13;5029466;28;20484;-54
2023/08/04 07:43:49;;;;;;;26.80;12.23;;;;;;;14.46;86.65;101396.38;5027996;28;20064;-51
2023/08/04 07:46:22;;;;;;;18.92;10.98;;;;;;;14.52;86.61;101403.34;5028586;28;20079;-46
2023/08/04 07:48:50;;;;;;;20.48;10.93;;;;;;;14.59;87.19;101400.72;5030644;28;20119;-49
2023/08/04 07:51:18;;;;;;;20.52;10.73;;;;;;;14.67;87.49;101402.56;5032066;28;20041;-48
2023/08/04 07:53:44;;;;;;;21.25;11.85;;;;;;;14.78;88.03;101409.22;5032369;28;20119;-45
2023/08/04 07:56:11;;;;;;;23.92;11.63;;;;;;;14.94;88.72;101410.06;5032145;28;20033;-53
2023/08/04 07:58:38;;;;;;;18.92;12.27;;;;;;;15.11;89.15;101415.31;5027615;28;20099;-45
2023/08/04 08:01:06;;;;;;;20.25;11.57;;;;;;;15.33;90.09;101415.84;5031691;28;20156;-46
2023/08/04 08:03:34;;;;;;;20.15;12.10;;;;;;;15.54;90.59;101419.97;5032240;28;20103;-48
2023/08/04 08:06:02;;;;;;;19.58;11.80;;;;;;;15.82;90.74;101428.22;5030735;28;20054;-47
2023/08/04 08:08:30;;;;;;;21.73;12.10;;;;;;;16.11;90.65;101429.66;5033206;28;20095;-45
2023/08/04 08:10:58;;;;;;;20.63;10.95;;;;;;;16.38;90.50;101434.22;5028817;28;20041;-45
2023/08/04 08:13:25;;;;;;;19.27;11.18;;;;;;;16.81;90.49;101447.88;5030041;28;20054;-46
2023/08/04 08:15:52;;;;;;;23.90;12.10;;;;;;;17.23;90.02;101456.28;5028533;28;20053;-47
2023/08/04 08:18:19;;;;;;;22.88;11.40;;;;;;;17.70;88.31;101458.69;5030638;28;20059;-47
2023/08/04 08:20:48;;;;;;;19.08;12.50;;;;;;;18.01;85.89;101461.16;5032032;28;20049;-46
2023/08/04 08:23:15;;;;;;;20.98;12.23;;;;;;;18.53;83.53;101465.88;5031712;28;20100;-43
2023/08/04 08:25:42;;;;;;;17.95;10.88;;;;;;;19.08;80.70;101460.50;5029083;28;20057;-45
2023/08/04 08:28:08;;;;;;;17.10;10.82;;;;;;;19.69;76.74;101457.06;5030730;28;20064;-45
2023/08/04 08:30:35;;;;;;;20.25;10.70;;;;;;;20.17;74.30;101458.59;5031491;28;20388;-48
2023/08/04 08:33:02;;;;;;;16.92;11.85;;;;;;;20.79;70.77;101459.28;5031065;28;20096;-45
2023/08/04 08:35:30;;;;;;;17.17;11.75;;;;;;;21.24;67.70;101466.25;5026238;28;20055;-47
2023/08/04 08:37:57;;;;;;;17.95;10.52;;;;;;;21.41;66.02;101468.28;5031573;28;20045;-44
2023/08/04 08:40:25;;;;;;;15.18;11.10;;;;;;;21.70;65.01;101460.66;5026232;28;20046;-45
2023/08/04 08:42:54;;;;;;;19.38;11.13;;;;;;;21.84;62.28;101466.28;5028876;28;20037;-49
2023/08/04 08:45:27;;;;;;;18.17;10.07;;;;;;;21.61;62.16;101457.41;5032477;28;20496;-45
2023/08/04 08:47:55;;;;;;;23.40;10.93;;;;;;;21.83;61.30;101464.66;5024192;28;20519;-46
2023/08/04 08:50:24;;;;;;;20.88;10.20;;;;;;;22.26;60.04;101462.59;5025525;28;20495;-49
2023/08/04 08:53:02;;;;;;;14.48;10.40;;;;;;;22.73;59.24;101464.03;5031399;28;20073;-46
2023/08/04 08:55:29;;;;;;;17.80;10.43;;;;;;;22.95;57.74;101468.38;5032262;28;20042;-47
2023/08/04 08:57:56;;;;;;;18.08;11.23;;;;;;;23.15;56.76;101477.91;5027028;28;20042;-45
2023/08/04 09:00:24;;;;;;;18.23;10.63;;;;;;;23.24;55.95;101475.44;5027587;28;20049;-46
2023/08/04 09:02:51;;;;;;;14.38;9.68;;;;;;;23.42;55.23;101462.00;5028771;28;20553;-45
2023/08/04 09:05:18;;;;;;;16.95;9.85;;;;;;;23.77;54.46;101465.75;5027624;28;20063;-46
2023/08/04 09:07:47;;;;;;;13.48;9.38;;;;;;;23.94;53.19;101465.56;5025626;28;20123;-46
2023/08/04 09:10:14;;;;;;;16.42;9.73;;;;;;;24.19;52.17;101462.53;5023095;28;20046;-45
2023/08/04 09:12:46;;;;;;;11.77;8.40;;;;;;;24.45;51.20;101464.66;5028914;28;20041;-46
2023/08/04 09:15:13;;;;;;;25.77;10.55;;;;;;;24.68;50.38;101450.59;5022441;28;20055;-46
2023/08/04 09:17:41;;;;;;;9.73;7.00;;;;;;;25.03;49.06;101451.34;5019550;28;20054;-46
2023/08/04 09:20:10;;;;;;;14.35;8.05;;;;;;;25.24;48.45;101465.19;5030420;28;20045;-46
2023/08/04 09:22:42;;;;;;;16.95;8.52;;;;;;;25.42;48.88;101462.88;5021659;28;20096;-47
2023/08/04 09:25:10;;;;;;;16.30;8.52;;;;;;;25.64;47.12;101464.19;5029659;28;20050;-45
2023/08/04 09:27:39;;;;;;;16.52;9.10;;;;;;;25.57;46.56;101460.66;5030494;28;20088;-44
2023/08/04 09:30:09;;;;;;;14.07;7.90;;;;;;;25.44;46.19;101464.06;5031817;28;20046;-47
2023/08/04 09:32:52;;;;;;;13.68;8.10;;;;;;;25.36;46.71;101453.28;5031485;28;20060;-47
2023/08/04 09:35:19;;;;;;;9.98;6.60;;;;;;;25.37;45.42;101454.88;5029179;28;20052;-46
2023/08/04 09:37:46;;;;;;;15.02;7.90;;;;;;;25.29;45.28;101450.53;5030359;28;20053;-45
2023/08/04 09:40:18;;;;;;;9.45;7.55;;;;;;;25.23;44.75;101452.28;5030726;28;20037;-45
2023/08/04 09:42:47;;;;;;;7.82;6.50;;;;;;;25.48;43.75;101451.88;5024629;28;20049;-46
2023/08/04 09:45:15;;;;;;;9.98;6.68;;;;;;;25.80;43.42;101452.94;5027886;28;20048;-45
2023/08/04 09:47:47;;;;;;;21.45;6.82;;;;;;;25.88;42.97;101454.44;5026862;28;20136;-44
2023/08/04 09:50:16;;;;;;;13.88;7.60;;;;;;;25.63;43.08;101456.09;5029572;28;20100;-47
2023/08/04 09:52:43;;;;;;;9.10;5.82;;;;;;;25.22;42.39;101445.00;5019205;28;20153;-45
2023/08/04 09:55:10;;;;;;;13.32;7.18;;;;;;;25.01;43.08;101433.97;5025607;28;20110;-46
2023/08/04 09:57:38;;;;;;;9.25;7.47;;;;;;;24.58;43.67;101433.75;5027782;28;20136;-46
2023/08/04 10:00:08;;;;;;;10.70;6.22;;;;;;;23.97;44.89;101435.66;5024480;28;20042;-45
2023/08/04 10:02:35;;;;;;;13.50;7.65;;;;;;;23.93;44.83;101438.53;5018357;28;20042;-44
2023/08/04 10:05:03;;;;;;;9.48;6.57;;;;;;;23.95;44.52;101432.44;5021989;28;20049;-45
2023/08/04 10:07:33;;;;;;;10.30;6.57;;;;;;;23.76;44.92;101427.38;5026543;28;20120;-46
2023/08/04 10:10:00;;;;;;;11.02;6.90;;;;;;;23.40;45.95;101424.91;5027699;28;20073;-46
2023/08/04 10:12:34;;;;;;;10.85;6.57;;;;;;;22.91;46.38;101420.38;5023103;28;20058;-51
2023/08/04 10:15:01;;;;;;;12.00;6.47;;;;;;;22.82;46.41;101414.38;5021374;28;20054;-45
2023/08/04 10:17:28;;;;;;;10.90;6.15;;;;;;;22.55;46.42;101410.47;5022092;28;20068;-46
2023/08/04 10:20:06;;;;;;;11.82;6.80;;;;;;;22.16;47.66;101404.97;5028194;28;20064;-45
2023/08/04 10:22:35;;;;;;;10.65;5.95;;;;;;;21.98;47.63;101403.41;5026613;28;20076;-49
2023/08/04 10:25:13;;;;;;;10.55;6.07;;;;;;;21.78;48.47;101397.41;5030501;28;20045;-45
2023/08/04 10:27:51;;;;;;;10.23;6.47;;;;;;;22.12;48.36;101397.75;5023704;28;20045;-51
2023/08/04 10:30:19;;;;;;;9.70;6.45;;;;;;;22.59;47.17;101410.44;5023272;28;20072;-46
2023/08/04 10:32:48;;;;;;;10.23;6.38;;;;;;;22.87;46.77;101410.31;5021918;28;20049;-45
2023/08/04 10:35:21;;;;;;;12.52;6.90;;;;;;;23.14;46.48;101408.50;5020827;28;20053;-45
2023/08/04 10:37:53;;;;;;;12.90;5.30;;;;;;;23.07;45.74;101397.25;5024926;28;20045;-49
2023/08/04 10:40:32;;;;;;;12.93;5.88;;;;;;;22.76;45.94;101392.63;5024164;28;20115;-45
2023/08/04 10:43:08;;;;;;;9.35;4.90;;;;;;;22.75;45.45;101396.66;5027180;28;20068;-45
2023/08/04 10:45:52;;;;;;;7.63;5.28;;;;;;;22.69;45.63;101399.13;5028146;28;20049;-47
2023/08/04 10:48:21;;;;;;;9.95;5.63;;;;;;;22.81;46.34;101404.31;5021471;28;20487;-45
2023/08/04 10:50:49;;;;;;;11.27;6.30;;;;;;;22.85;45.96;101407.09;5024820;28;20049;-45
2023/08/04 10:53:17;;;;;;;8.00;5.15;;;;;;;22.74;45.79;101407.16;5030410;28;20072;-46
2023/08/04 10:55:55;;;;;;;9.82;5.78;;;;;;;22.36;45.87;101394.03;5022208;28;20416;-45
2023/08/04 10:58:24;;;;;;;10.60;6.45;;;;;;;21.99;47.09;101403.03;5027530;28;20038;-45
2023/08/04 11:00:56;;;;;;;10.20;6.10;;;;;;;21.68;47.84;101401.06;5023833;28;20058;-46
2023/08/04 11:03:24;;;;;;;10.90;5.22;;;;;;;21.41;47.98;101394.25;5024003;28;20038;-45
2023/08/04 11:05:52;;;;;;;10.95;5.88;;;;;;;21.31;49.32;101393.06;5027101;28;20041;-45
2023/08/04 11:08:20;;;;;;;9.45;5.20;;;;;;;21.37;49.41;101404.69;5025725;28;20057;-44
2023/08/04 11:10:55;;;;;;;9.25;5.40;;;;;;;21.39;48.78;101396.66;5022311;28;20500;-48
2023/08/04 11:13:23;;;;;;;12.13;5.82;;;;;;;21.43;49.72;101383.38;5026980;28;20077;-46
2023/08/04 11:15:55;;;;;;;9.27;4.68;;;;;;;21.59;49.12;101393.03;5022847;28;20419;-46
2023/08/04 11:18:29;;;;;;;10.43;5.78;;;;;;;21.72;48.93;101397.03;5030285;28;20068;-47
2023/08/04 11:21:02;;;;;;;6.57;4.78;;;;;;;21.78;49.13;101405.88;5029314;28;20068;-50